Time;durP1;ratioP1;P1;durP2;ratioP2;P2;SDS_P1;SDS_P2;PMS_P1;PMS_P2;Temp;Humidity;BMP_temperature;BMP_pressure;BME280_temperature;BME280_humidity;BME280_pressure;Samples;Min_cycle;Max_cycle;Signal;HPM_P1;HPM_P2
2023/08/15 00:00:15;;;;;;;0.00;0.00;;;19.50;79.60;;;;;;5028869;28;20049;-68
2023/08/15 00:02:41;;;;;;;0.00;0.00;;;19.40;79.90;;;;;;5028995;28;20128;-68
2023/08/15 00:05:07;;;;;;;0.00;0.00;;;19.50;80.10;;;;;;5028806;28;20052;-68
2023/08/15 00:07:32;;;;;;;0.00;0.00;;;19.40;79.90;;;;;;5028662;28;20074;-68
2023/08/15 00:09:58;;;;;;;0.00;0.00;;;19.40;80.00;;;;;;5028842;28;20075;-68
2023/08/15 00:12:24;;;;;;;0.00;0.00;;;19.40;79.90;;;;;;5029197;28;20034;-68
2023/08/15 00:14:49;;;;;;;0.00;0.00;;;19.40;80.00;;;;;;5028805;28;20041;-68
2023/08/15 00:17:15;;;;;;;0.00;0.00;;;19.40;80.10;;;;;;5028565;28;20123;-68
2023/08/15 00:19:40;;;;;;;0.00;0.00;;;19.40;80.30;;;;;;5029000;28;20060;-68
2023/08/15 00:22:06;;;;;;;0.00;0.00;;;19.40;80.20;;;;;;5028865;28;20046;-68
2023/08/15 00:24:32;;;;;;;0.00;0.00;;;19.40;80.20;;;;;;5028289;28;20042;-68
2023/08/15 00:26:57;;;;;;;0.00;0.00;;;19.40;80.30;;;;;;5029078;28;20045;-68
2023/08/15 00:29:23;;;;;;;0.00;0.00;;;19.40;80.20;;;;;;5028928;28;20044;-68
2023/08/15 00:31:48;;;;;;;0.00;0.00;;;19.40;80.20;;;;;;5031784;28;20418;-68
2023/08/15 00:34:14;;;;;;;0.00;0.00;;;19.40;80.40;;;;;;5032590;28;20037;-68
2023/08/15 00:36:39;;;;;;;0.00;0.00;;;19.40;80.30;;;;;;5032571;28;20449;-69
2023/08/15 00:39:05;;;;;;;0.00;0.00;;;19.40;80.20;;;;;;5032704;28;20046;-68
2023/08/15 00:41:30;;;;;;;0.00;0.00;;;19.40;80.20;;;;;;5032412;28;20076;-68
2023/08/15 00:43:58;;;;;;;0.00;0.00;;;19.40;80.20;;;;;;5032715;28;20042;-68
2023/08/15 00:46:24;;;;;;;0.00;0.00;;;19.40;80.30;;;;;;5032309;28;20080;-68
2023/08/15 00:48:50;;;;;;;0.00;0.00;;;19.30;80.40;;;;;;5032378;28;20076;-68
2023/08/15 00:51:16;;;;;;;0.00;0.00;;;19.30;80.20;;;;;;5032478;28;20462;-69
2023/08/15 00:53:42;;;;;;;0.00;0.00;;;19.30;80.20;;;;;;5032247;28;20056;-68
2023/08/15 00:56:09;;;;;;;0.00;0.00;;;19.30;79.90;;;;;;5032901;28;20124;-68
2023/08/15 00:58:34;;;;;;;0.00;0.00;;;19.30;80.20;;;;;;5031886;28;20502;-68
2023/08/15 01:01:01;;;;;;;0.00;0.00;;;19.30;80.80;;;;;;5014317;28;20129;-68
2023/08/15 01:03:28;;;;;;;0.00;0.00;;;19.30;80.80;;;;;;5032114;28;20085;-68
2023/08/15 01:05:55;;;;;;;0.00;0.00;;;19.30;80.90;;;;;;5031941;28;20645;-69
2023/08/15 01:08:20;;;;;;;0.00;0.00;;;19.30;80.80;;;;;;5031797;28;20136;-68
2023/08/15 01:10:47;;;;;;;0.00;0.00;;;19.30;80.70;;;;;;5032234;28;20117;-68
2023/08/15 01:13:39;;;;;;;0.00;0.00;;;19.30;80.80;;;;;;5031471;28;20091;-68
2023/08/15 01:16:09;;;;;;;0.00;0.00;;;19.20;80.90;;;;;;5031562;28;20033;-68
2023/08/15 01:18:40;;;;;;;0.00;0.00;;;19.30;80.80;;;;;;5031589;28;20548;-68
2023/08/15 01:21:06;;;;;;;0.00;0.00;;;19.20;80.60;;;;;;5031747;28;20041;-68
2023/08/15 01:23:44;;;;;;;0.00;0.00;;;19.20;80.20;;;;;;5031625;28;20046;-68
2023/08/15 01:26:10;;;;;;;0.00;0.00;;;19.10;80.60;;;;;;5032047;28;20096;-69
2023/08/15 01:28:38;;;;;;;0.20;0.20;;;19.10;80.60;;;;;;5014206;28;20449;-68
2023/08/15 01:31:36;;;;;;;0.00;0.00;;;19.10;80.90;;;;;;5031872;28;20434;-68
2023/08/15 01:34:07;;;;;;;0.00;0.00;;;19.10;81.50;;;;;;5021319;28;20130;-68
2023/08/15 01:36:39;;;;;;;0.00;0.00;;;19.10;81.20;;;;;;5031392;28;20034;-68
2023/08/15 01:39:06;;;;;;;0.13;0.13;;;19.10;81.50;;;;;;5031680;28;20087;-69
2023/08/15 01:41:40;;;;;;;0.00;0.00;;;19.10;81.50;;;;;;5030809;28;20547;-68
2023/08/15 01:44:08;;;;;;;0.00;0.00;;;19.10;81.60;;;;;;5021593;28;20049;-69
2023/08/15 01:46:34;;;;;;;0.00;0.00;;;19.20;81.50;;;;;;5030879;28;20045;-68
2023/08/15 01:49:00;;;;;;;0.00;0.00;;;19.20;81.50;;;;;;5031253;28;20052;-68
2023/08/15 01:51:25;;;;;;;0.00;0.00;;;19.20;81.40;;;;;;5031632;28;20037;-69
2023/08/15 01:53:51;;;;;;;0.00;0.00;;;19.20;81.50;;;;;;5030497;28;20091;-68
2023/08/15 01:56:17;;;;;;;0.00;0.00;;;19.20;81.60;;;;;;5031534;28;20049;-68
2023/08/15 01:58:42;;;;;;;0.00;0.00;;;19.30;81.70;;;;;;5019252;28;20212;-68
2023/08/15 02:01:08;;;;;;;0.00;0.00;;;19.20;81.60;;;;;;5031213;28;20041;-68
2023/08/15 02:03:33;;;;;;;0.00;0.00;;;19.20;81.70;;;;;;5022449;28;20053;-68
2023/08/15 02:05:59;;;;;;;0.00;0.00;;;19.20;81.70;;;;;;5031289;28;20155;-68
2023/08/15 02:08:25;;;;;;;0.00;0.00;;;19.30;81.90;;;;;;5030995;28;20052;-68
2023/08/15 02:10:51;;;;;;;0.00;0.00;;;19.20;82.10;;;;;;5030817;28;20494;-67
2023/08/15 02:13:17;;;;;;;0.00;0.00;;;19.20;82.00;;;;;;5031023;28;20124;-68
2023/08/15 02:15:43;;;;;;;0.00;0.00;;;19.20;81.90;;;;;;5030593;28;20559;-68
2023/08/15 02:18:09;;;;;;;0.00;0.00;;;19.20;81.90;;;;;;5030773;28;20049;-67
2023/08/15 02:20:35;;;;;;;0.00;0.00;;;19.20;82.10;;;;;;5030819;28;20124;-68
2023/08/15 02:23:00;;;;;;;0.00;0.00;;;19.20;82.30;;;;;;5029947;28;20178;-68
2023/08/15 02:25:26;;;;;;;0.00;0.00;;;19.20;82.30;;;;;;5030659;28;20091;-68
2023/08/15 02:27:52;;;;;;;0.00;0.00;;;19.20;82.40;;;;;;5030437;28;20045;-68
2023/08/15 02:30:17;;;;;;;0.00;0.00;;;19.20;82.40;;;;;;5030836;28;20064;-68
2023/08/15 02:32:44;;;;;;;0.00;0.00;;;19.20;82.50;;;;;;5027133;28;20383;-68
2023/08/15 02:35:11;;;;;;;0.00;0.00;;;19.20;82.50;;;;;;5030822;28;20045;-68
2023/08/15 02:37:37;;;;;;;0.00;0.00;;;19.20;82.50;;;;;;5030571;28;20049;-68
2023/08/15 02:40:06;;;;;;;0.00;0.00;;;19.20;82.50;;;;;;5030606;28;20140;-68
2023/08/15 02:42:32;;;;;;;0.00;0.00;;;19.20;82.50;;;;;;5028734;28;20037;-68
2023/08/15 02:44:57;;;;;;;0.00;0.00;;;19.20;82.60;;;;;;5029986;28;20077;-67
2023/08/15 02:47:23;;;;;;;0.00;0.00;;;19.20;82.60;;;;;;5029989;28;20124;-68
2023/08/15 02:49:48;;;;;;;0.00;0.00;;;19.20;82.70;;;;;;5030140;28;20045;-67
2023/08/15 02:52:14;;;;;;;0.00;0.00;;;19.20;82.70;;;;;;5029761;28;20038;-68
2023/08/15 02:54:39;;;;;;;0.00;0.00;;;19.20;83.00;;;;;;5015912;28;20659;-68
2023/08/15 02:57:05;;;;;;;0.00;0.00;;;19.20;82.90;;;;;;5030035;28;20445;-68
2023/08/15 02:59:30;;;;;;;0.00;0.00;;;19.20;82.90;;;;;;5012656;28;20053;-68
2023/08/15 03:01:56;;;;;;;0.00;0.00;;;19.30;83.00;;;;;;4995825;28;20129;-68
2023/08/15 03:04:21;;;;;;;0.00;0.00;;;19.30;83.40;;;;;;5028991;28;20112;-68
2023/08/15 03:06:47;;;;;;;0.00;0.00;;;19.30;83.30;;;;;;5029990;28;20053;-68
2023/08/15 03:09:14;;;;;;;0.00;0.00;;;19.30;83.30;;;;;;5030451;28;20556;-68
2023/08/15 03:11:39;;;;;;;0.00;0.00;;;19.30;83.20;;;;;;5029396;28;20045;-68
2023/08/15 03:14:05;;;;;;;0.00;0.00;;;19.40;83.20;;;;;;4996023;28;20051;-68
2023/08/15 03:16:31;;;;;;;0.00;0.00;;;19.40;83.00;;;;;;4995873;28;20065;-68
2023/08/15 03:18:56;;;;;;;0.00;0.00;;;19.40;83.10;;;;;;5029805;28;20382;-68
2023/08/15 03:21:22;;;;;;;0.00;0.00;;;19.40;83.50;;;;;;5029100;28;20439;-69
2023/08/15 03:23:47;;;;;;;0.00;0.00;;;19.50;83.60;;;;;;5029411;28;20485;-68
2023/08/15 03:26:13;;;;;;;2.92;1.75;;;19.40;83.70;;;;;;5029880;28;20100;-68
2023/08/15 03:28:38;;;;;;;0.00;0.00;;;19.30;83.90;;;;;;5029574;28;20041;-68
2023/08/15 03:31:05;;;;;;;0.00;0.00;;;19.30;83.70;;;;;;5029548;28;20044;-67
2023/08/15 03:33:31;;;;;;;0.00;0.00;;;19.30;84.10;;;;;;5028320;28;20076;-69
2023/08/15 03:35:56;;;;;;;0.00;0.00;;;19.30;83.90;;;;;;5029745;28;20720;-68
2023/08/15 03:38:22;;;;;;;0.00;0.00;;;19.20;83.80;;;;;;5029636;28;20045;-69
2023/08/15 03:40:51;;;;;;;0.00;0.00;;;19.30;83.70;;;;;;5029453;28;20042;-68
2023/08/15 03:43:17;;;;;;;0.00;0.00;;;19.30;83.50;;;;;;5028766;28;20072;-68
2023/08/15 03:45:42;;;;;;;0.00;0.00;;;19.30;83.20;;;;;;5029414;28;20690;-68
2023/08/15 03:48:09;;;;;;;0.00;0.00;;;19.20;83.40;;;;;;5029150;28;20053;-69
2023/08/15 03:50:36;;;;;;;0.00;0.00;;;19.20;83.20;;;;;;5011143;28;20099;-68
2023/08/15 03:53:02;;;;;;;0.00;0.00;;;19.20;83.20;;;;;;5028790;28;20045;-68
2023/08/15 03:55:31;;;;;;;0.10;0.10;;;19.20;82.90;;;;;;5029033;28;20052;-68
2023/08/15 03:57:57;;;;;;;0.00;0.00;;;19.20;83.10;;;;;;5028778;28;20030;-68
2023/08/15 04:00:24;;;;;;;0.00;0.00;;;19.10;83.20;;;;;;5029040;28;20056;-68
2023/08/15 04:02:49;;;;;;;0.00;0.00;;;19.20;83.10;;;;;;5028788;28;20056;-68
2023/08/15 04:05:16;;;;;;;0.00;0.00;;;19.10;83.10;;;;;;5028384;28;20491;-68
2023/08/15 04:07:41;;;;;;;0.00;0.00;;;19.10;83.00;;;;;;5029138;28;20554;-68
2023/08/15 04:10:07;;;;;;;0.00;0.00;;;19.10;82.90;;;;;;5028449;28;20038;-68
2023/08/15 04:12:36;;;;;;;0.00;0.00;;;19.10;82.80;;;;;;5028668;28;20041;-68
2023/08/15 04:15:02;;;;;;;0.00;0.00;;;19.10;82.80;;;;;;5029327;28;20041;-69
2023/08/15 04:17:27;;;;;;;0.00;0.00;;;19.10;82.80;;;;;;5028916;28;20216;-68
2023/08/15 04:19:53;;;;;;;0.00;0.00;;;19.10;82.70;;;;;;5028681;28;20119;-68
2023/08/15 04:22:19;;;;;;;0.00;0.00;;;19.00;82.70;;;;;;5028206;28;20042;-68
2023/08/15 04:24:45;;;;;;;0.00;0.00;;;19.00;82.70;;;;;;5028963;28;20053;-68
2023/08/15 04:27:11;;;;;;;0.00;0.00;;;19.00;82.80;;;;;;5029074;28;20391;-68
2023/08/15 04:29:37;;;;;;;0.00;0.00;;;19.00;82.70;;;;;;5028308;28;20045;-68
2023/08/15 04:32:02;;;;;;;0.22;0.22;;;18.90;82.60;;;;;;5028403;28;20084;-68
2023/08/15 04:34:28;;;;;;;0.03;0.03;;;18.80;82.60;;;;;;5010887;28;21083;-68
2023/08/15 04:36:54;;;;;;;0.00;0.00;;;18.80;82.80;;;;;;5028262;28;20087;-68
2023/08/15 04:39:23;;;;;;;0.00;0.00;;;18.80;82.60;;;;;;5028570;28;20042;-69
2023/08/15 04:41:49;;;;;;;0.00;0.00;;;18.70;82.50;;;;;;5027932;28;20091;-68
2023/08/15 04:44:15;;;;;;;0.00;0.00;;;18.70;82.40;;;;;;5028345;28;20049;-68
2023/08/15 04:46:40;;;;;;;0.00;0.00;;;18.70;82.30;;;;;;5025695;28;20057;-67
2023/08/15 04:49:06;;;;;;;0.00;0.00;;;18.70;82.40;;;;;;5029131;28;20120;-68
2023/08/15 04:51:32;;;;;;;0.00;0.00;;;18.70;82.40;;;;;;5027926;28;20473;-68
2023/08/15 04:53:57;;;;;;;0.00;0.00;;;18.70;82.30;;;;;;5028773;28;20045;-68
2023/08/15 04:56:23;;;;;;;0.00;0.00;;;18.70;82.30;;;;;;5028502;28;20038;-68
2023/08/15 04:58:49;;;;;;;0.00;0.00;;;18.70;82.30;;;;;;5028162;28;20565;-68
2023/08/15 05:01:14;;;;;;;0.00;0.00;;;18.70;82.30;;;;;;5028322;28;20505;-68
2023/08/15 05:03:41;;;;;;;0.00;0.00;;;18.70;82.40;;;;;;5028648;28;20061;-69
2023/08/15 05:06:06;;;;;;;0.00;0.00;;;18.60;82.50;;;;;;5028548;28;20104;-68
2023/08/15 05:08:32;;;;;;;0.00;0.00;;;18.60;82.60;;;;;;5028124;28;20045;-68
2023/08/15 05:10:58;;;;;;;0.00;0.00;;;18.60;82.60;;;;;;5027712;28;20520;-68
2023/08/15 05:13:24;;;;;;;0.00;0.00;;;18.60;83.00;;;;;;5028543;28;20128;-68
2023/08/15 05:15:49;;;;;;;0.00;0.00;;;18.60;83.00;;;;;;5027977;28;20132;-68
2023/08/15 05:18:16;;;;;;;0.00;0.00;;;18.60;83.20;;;;;;5029207;28;20497;-69
2023/08/15 05:20:42;;;;;;;0.00;0.00;;;18.60;83.30;;;;;;5031479;28;20470;-68
2023/08/15 05:23:08;;;;;;;0.00;0.00;;;18.60;83.50;;;;;;5031545;28;20085;-68
2023/08/15 05:25:34;;;;;;;0.00;0.00;;;18.60;83.50;;;;;;5021834;28;20068;-68
2023/08/15 05:28:05;;;;;;;0.00;0.00;;;18.60;83.50;;;;;;5030930;28;20160;-68
2023/08/15 05:30:34;;;;;;;0.00;0.00;;;18.60;83.70;;;;;;5030728;28;20406;-68
2023/08/15 05:33:00;;;;;;;0.00;0.00;;;18.60;83.60;;;;;;5029684;28;20479;-68
2023/08/15 05:35:26;;;;;;;0.00;0.00;;;18.60;83.60;;;;;;5030339;28;20452;-68
2023/08/15 05:37:53;;;;;;;0.00;0.00;;;18.60;83.60;;;;;;5032060;28;20033;-68
2023/08/15 05:40:20;;;;;;;0.00;0.00;;;18.60;83.60;;;;;;5030264;28;21370;-68
2023/08/15 05:42:46;;;;;;;0.00;0.00;;;18.60;83.90;;;;;;5029745;28;20949;-68
2023/08/15 05:45:12;;;;;;;0.00;0.00;;;18.60;83.90;;;;;;5030566;28;20033;-68
2023/08/15 05:47:37;;;;;;;0.00;0.00;;;18.60;84.70;;;;;;5030237;28;20069;-68
2023/08/15 05:50:03;;;;;;;0.00;0.00;;;18.60;84.70;;;;;;5030167;28;20044;-68
2023/08/15 05:52:29;;;;;;;0.00;0.00;;;18.60;85.10;;;;;;5022011;28;20126;-68
2023/08/15 05:54:55;;;;;;;0.00;0.00;;;18.60;85.00;;;;;;5030221;28;20045;-68
2023/08/15 05:57:21;;;;;;;0.00;0.00;;;18.60;84.80;;;;;;5030036;28;21022;-68
2023/08/15 05:59:46;;;;;;;0.00;0.00;;;18.60;85.10;;;;;;5030288;28;20041;-68
2023/08/15 06:02:13;;;;;;;0.00;0.00;;;18.70;85.60;;;;;;5030385;28;20614;-68
2023/08/15 06:04:39;;;;;;;0.00;0.00;;;18.70;86.10;;;;;;5026313;28;20498;-68
2023/08/15 06:07:04;;;;;;;0.00;0.00;;;18.70;86.80;;;;;;5029846;28;20037;-68
2023/08/15 06:09:30;;;;;;;0.00;0.00;;;18.70;87.20;;;;;;5029545;28;20037;-68
2023/08/15 06:11:56;;;;;;;0.00;0.00;;;18.70;87.40;;;;;;5029754;28;20033;-68
2023/08/15 06:14:21;;;;;;;0.00;0.00;;;18.80;87.40;;;;;;5011301;28;20514;-68
2023/08/15 06:16:48;;;;;;;0.00;0.00;;;18.80;87.60;;;;;;5030791;28;20037;-69
2023/08/15 06:19:13;;;;;;;0.00;0.00;;;18.90;88.30;;;;;;5031108;28;20758;-69
2023/08/15 06:21:42;;;;;;;1.38;0.40;;;18.90;87.90;;;;;;5030836;28;20050;-69
2023/08/15 06:24:12;;;;;;;0.10;0.10;;;18.90;88.00;;;;;;5013245;28;20100;-69
2023/08/15 06:26:38;;;;;;;0.22;0.22;;;19.00;88.10;;;;;;5030767;28;20037;-69
2023/08/15 06:29:05;;;;;;;0.00;0.00;;;18.90;88.10;;;;;;5012855;28;20056;-69
2023/08/15 06:31:35;;;;;;;0.00;0.00;;;19.00;88.00;;;;;;5013018;28;20417;-69
2023/08/15 06:34:02;;;;;;;0.00;0.00;;;19.00;88.40;;;;;;5030182;28;20049;-69
2023/08/15 06:36:28;;;;;;;0.00;0.00;;;19.10;88.30;;;;;;5030397;28;20053;-67
2023/08/15 06:38:54;;;;;;;0.00;0.00;;;19.10;88.90;;;;;;5030317;28;20065;-68
2023/08/15 06:41:19;;;;;;;0.00;0.00;;;19.20;88.40;;;;;;5030536;28;20136;-69
2023/08/15 06:43:45;;;;;;;0.00;0.00;;;19.20;88.20;;;;;;5009199;28;20041;-69
2023/08/15 06:46:11;;;;;;;0.63;0.40;;;19.20;87.50;;;;;;5030613;22;20056;-69
2023/08/15 06:48:37;;;;;;;0.00;0.00;;;19.30;87.40;;;;;;5050886;28;20114;-68
2023/08/15 06:51:03;;;;;;;0.00;0.00;;;19.40;87.20;;;;;;5044526;28;20505;-69
2023/08/15 06:53:32;;;;;;;2.25;1.48;;;19.40;87.80;;;;;;5052820;28;20095;-68
2023/08/15 06:55:58;;;;;;;0.00;0.00;;;19.40;87.60;;;;;;5048462;28;20053;-68
2023/08/15 06:58:24;;;;;;;0.32;0.32;;;19.50;87.60;;;;;;5054948;28;20133;-68
2023/08/15 07:00:50;;;;;;;0.00;0.00;;;19.50;87.50;;;;;;5061623;28;20048;-68
2023/08/15 07:03:16;;;;;;;0.57;0.57;;;19.50;87.40;;;;;;5061897;28;20048;-69
2023/08/15 07:05:42;;;;;;;0.38;0.38;;;19.50;87.20;;;;;;5054272;28;20068;-68
2023/08/15 07:08:08;;;;;;;0.00;0.00;;;19.60;86.90;;;;;;5058919;28;20047;-69
2023/08/15 07:10:35;;;;;;;0.00;0.00;;;19.60;86.50;;;;;;5054822;28;20053;-68
2023/08/15 07:13:01;;;;;;;0.00;0.00;;;19.60;86.30;;;;;;5057674;28;20043;-68
2023/08/15 07:15:27;;;;;;;0.00;0.00;;;19.70;86.30;;;;;;5052226;28;20053;-69
2023/08/15 07:17:52;;;;;;;0.55;0.47;;;19.70;85.90;;;;;;5053847;28;20041;-71
2023/08/15 07:20:18;;;;;;;8.52;1.17;;;19.70;85.60;;;;;;5055049;28;20831;-71
2023/08/15 07:22:44;;;;;;;0.00;0.00;;;19.80;85.10;;;;;;5056578;28;20041;-72
2023/08/15 07:25:10;;;;;;;0.00;0.00;;;19.80;84.80;;;;;;5066636;28;20072;-72
2023/08/15 07:27:37;;;;;;;7.13;1.40;;;19.80;84.20;;;;;;5060979;28;20045;-71
2023/08/15 07:30:06;;;;;;;0.03;0.03;;;19.80;83.50;;;;;;5053887;28;20032;-72
2023/08/15 07:32:35;;;;;;;0.00;0.00;;;19.90;83.60;;;;;;5050383;28;20458;-70
2023/08/15 07:35:01;;;;;;;0.00;0.00;;;19.90;83.50;;;;;;5052118;28;20133;-70
2023/08/15 07:37:26;;;;;;;0.00;0.00;;;20.00;83.10;;;;;;5055799;28;21021;-69
2023/08/15 07:40:05;;;;;;;0.00;0.00;;;20.00;83.70;;;;;;5054325;28;20563;-69
2023/08/15 07:42:31;;;;;;;0.00;0.00;;;20.10;83.20;;;;;;5036076;28;20497;-70
2023/08/15 07:44:57;;;;;;;0.00;0.00;;;20.10;83.10;;;;;;5061731;28;20051;-70
2023/08/15 07:47:23;;;;;;;0.00;0.00;;;20.10;83.00;;;;;;5049980;28;20678;-70
2023/08/15 07:49:48;;;;;;;0.00;0.00;;;20.10;82.90;;;;;;5054276;28;20092;-70
2023/08/15 07:52:14;;;;;;;0.00;0.00;;;20.10;82.30;;;;;;5057899;28;20802;-70
2023/08/15 07:54:42;;;;;;;0.00;0.00;;;20.10;82.30;;;;;;5052571;28;20524;-70
2023/08/15 07:57:08;;;;;;;0.00;0.00;;;20.10;82.30;;;;;;5059224;28;20064;-70
2023/08/15 07:59:34;;;;;;;0.00;0.00;;;20.10;82.10;;;;;;5055335;28;20033;-71
2023/08/15 08:01:59;;;;;;;0.10;0.10;;;20.10;82.40;;;;;;5058196;28;20082;-70
2023/08/15 08:04:25;;;;;;;0.22;0.22;;;20.20;82.70;;;;;;5054530;28;20048;-70
2023/08/15 08:06:50;;;;;;;0.00;0.00;;;20.30;82.60;;;;;;5051049;28;20147;-70
2023/08/15 08:09:16;;;;;;;0.00;0.00;;;20.40;82.00;;;;;;5049744;28;20666;-70
2023/08/15 08:11:41;;;;;;;0.00;0.00;;;20.40;81.00;;;;;;5051623;28;20080;-70
2023/08/15 08:14:07;;;;;;;0.00;0.00;;;20.40;81.00;;;;;;5053428;28;20037;-70
2023/08/15 08:16:33;;;;;;;0.00;0.00;;;20.50;80.90;;;;;;5052699;28;20053;-70
2023/08/15 08:18:58;;;;;;;0.00;0.00;;;20.50;80.50;;;;;;5056401;28;20048;-69
2023/08/15 08:21:24;;;;;;;0.00;0.00;;;20.40;80.00;;;;;;5056262;28;20482;-74
2023/08/15 08:23:50;;;;;;;0.00;0.00;;;20.40;80.20;;;;;;5059694;28;20048;-70
2023/08/15 08:26:15;;;;;;;0.00;0.00;;;20.50;79.90;;;;;;5068609;28;20055;-71
2023/08/15 08:28:41;;;;;;;0.00;0.00;;;20.50;80.30;;;;;;5051531;28;20056;-70
2023/08/15 08:31:06;;;;;;;0.00;0.00;;;20.50;80.40;;;;;;5049210;28;20052;-70
2023/08/15 08:33:32;;;;;;;0.00;0.00;;;20.50;79.60;;;;;;5049106;28;20048;-70
2023/08/15 08:35:58;;;;;;;0.00;0.00;;;20.60;78.60;;;;;;5049458;28;20032;-70
2023/08/15 08:38:23;;;;;;;0.00;0.00;;;20.60;78.70;;;;;;5068117;28;20170;-70
2023/08/15 08:40:49;;;;;;;0.00;0.00;;;20.70;79.20;;;;;;5067634;28;20078;-70
2023/08/15 08:43:18;;;;;;;16.55;0.80;;;20.80;78.30;;;;;;5068249;28;20060;-71
2023/08/15 08:45:51;;;;;;;0.40;0.40;;;20.80;77.70;;;;;;5068909;28;20119;-70
2023/08/15 08:48:18;;;;;;;0.00;0.00;;;20.90;78.40;;;;;;5067716;28;20106;-70
2023/08/15 08:50:45;;;;;;;0.00;0.00;;;20.90;77.90;;;;;;5060408;28;20048;-70
2023/08/15 08:53:10;;;;;;;0.00;0.00;;;21.00;78.20;;;;;;5068794;28;20060;-70
2023/08/15 08:55:38;;;;;;;0.00;0.00;;;21.10;78.20;;;;;;5060005;28;20493;-70
2023/08/15 08:58:05;;;;;;;0.00;0.00;;;21.20;78.40;;;;;;5052469;28;20052;-70
2023/08/15 09:00:33;;;;;;;0.00;0.00;;;21.10;77.20;;;;;;5057136;28;20132;-71
2023/08/15 09:02:59;;;;;;;0.00;0.00;;;21.10;77.70;;;;;;5055938;28;20037;-71
2023/08/15 09:05:26;;;;;;;0.00;0.00;;;21.10;76.90;;;;;;5048649;28;20122;-70
2023/08/15 09:07:52;;;;;;;0.00;0.00;;;21.00;76.70;;;;;;5052459;28;20045;-70
2023/08/15 09:10:20;;;;;;;0.10;0.10;;;21.00;76.10;;;;;;5052840;28;20049;-70
2023/08/15 09:12:47;;;;;;;0.00;0.00;;;21.10;76.40;;;;;;5052423;28;20048;-70
2023/08/15 09:15:13;;;;;;;0.00;0.00;;;21.20;76.60;;;;;;5053314;28;20132;-70
2023/08/15 09:17:39;;;;;;;0.00;0.00;;;21.40;76.30;;;;;;5070752;28;20484;-70
2023/08/15 09:20:23;;;;;;;1.85;0.95;;;21.50;75.80;;;;;;5068571;28;20119;-70
2023/08/15 09:22:50;;;;;;;0.05;0.05;;;21.60;74.10;;;;;;5068127;28;20086;-70
2023/08/15 09:25:20;;;;;;;0.05;0.05;;;21.70;74.20;;;;;;5060016;28;20945;-70
2023/08/15 09:27:46;;;;;;;0.20;0.20;;;21.60;73.20;;;;;;5071671;28;20564;-71
2023/08/15 09:30:16;;;;;;;0.00;0.00;;;21.70;74.50;;;;;;5060061;28;20128;-70
2023/08/15 09:32:43;;;;;;;0.00;0.00;;;21.70;74.70;;;;;;5051940;28;20041;-70
2023/08/15 09:35:11;;;;;;;0.00;0.00;;;21.70;74.10;;;;;;5052033;28;20052;-73
2023/08/15 09:37:45;;;;;;;0.38;0.38;;;21.50;73.90;;;;;;5039382;28;20072;-76
2023/08/15 09:40:16;;;;;;;0.00;0.00;;;21.50;73.90;;;;;;5055813;28;20071;-77
2023/08/15 09:42:43;;;;;;;0.55;0.55;;;21.50;72.50;;;;;;5041659;28;20044;-76
2023/08/15 09:45:11;;;;;;;0.00;0.00;;;21.60;74.00;;;;;;5040005;28;20052;-75
2023/08/15 09:47:38;;;;;;;0.00;0.00;;;21.60;72.80;;;;;;5063777;28;20159;-74
2023/08/15 09:50:06;;;;;;;0.00;0.00;;;21.60;72.30;;;;;;5053792;28;20678;-74
2023/08/15 09:52:34;;;;;;;0.10;0.10;;;21.60;72.90;;;;;;5033891;28;20049;-74
2023/08/15 09:54:59;;;;;;;0.08;0.08;;;21.60;73.10;;;;;;5056894;28;20048;-73
2023/08/15 09:57:25;;;;;;;0.00;0.00;;;21.70;73.60;;;;;;5039944;28;20055;-74
2023/08/15 09:59:51;;;;;;;0.05;0.05;;;21.90;73.10;;;;;;5055809;28;20143;-74
2023/08/15 10:02:27;;;;;;;0.00;0.00;;;22.00;72.50;;;;;;5041075;28;20572;-75
2023/08/15 10:05:02;;;;;;;0.00;0.00;;;22.10;71.50;;;;;;5058537;28;20052;-73
2023/08/15 10:07:32;;;;;;;3.10;1.55;;;22.10;71.00;;;;;;5051570;28;20135;-74
2023/08/15 10:10:02;;;;;;;0.00;0.00;;;22.10;70.90;;;;;;5039289;28;20052;-74
2023/08/15 10:12:29;;;;;;;0.00;0.00;;;22.10;70.90;;;;;;5041463;28;20116;-74
2023/08/15 10:14:57;;;;;;;0.00;0.00;;;22.10;71.10;;;;;;5033655;28;20044;-74
2023/08/15 10:17:25;;;;;;;0.00;0.00;;;22.20;72.00;;;;;;5038893;28;20056;-74
2023/08/15 10:19:50;;;;;;;0.00;0.00;;;22.30;71.10;;;;;;5039583;28;20091;-74
2023/08/15 10:22:18;;;;;;;10.05;0.85;;;22.30;69.60;;;;;;5044336;28;20841;-74
2023/08/15 10:24:44;;;;;;;0.15;0.15;;;22.30;68.80;;;;;;5050450;28;20055;-74
2023/08/15 10:27:14;;;;;;;0.00;0.00;;;22.30;69.90;;;;;;5032099;28;20120;-74
2023/08/15 10:30:26;;;;;;;0.00;0.00;;;22.30;69.80;;;;;;5059255;28;20044;-74
2023/08/15 10:32:52;;;;;;;0.00;0.00;;;22.20;70.70;;;;;;5030252;28;20409;-74
2023/08/15 10:35:24;;;;;;;0.00;0.00;;;22.30;70.40;;;;;;5064074;28;20057;-74
2023/08/15 10:37:50;;;;;;;0.00;0.00;;;22.30;69.60;;;;;;5058011;28;20101;-75
2023/08/15 10:40:15;;;;;;;0.00;0.00;;;22.30;70.20;;;;;;5045148;28;20155;-75
2023/08/15 10:43:11;;;;;;;0.20;0.20;;;22.40;70.90;;;;;;5020592;28;20100;-75
2023/08/15 10:45:50;;;;;;;0.00;0.00;;;22.50;71.10;;;;;;5036185;28;20047;-75
2023/08/15 10:48:35;;;;;;;0.00;0.00;;;22.60;70.30;;;;;;5043035;28;20053;-75
2023/08/15 10:51:01;;;;;;;25.30;2.83;;;22.60;69.90;;;;;;5036270;28;20115;-75
2023/08/15 10:53:27;;;;;;;0.00;0.00;;;22.60;69.60;;;;;;5040457;28;20497;-75
2023/08/15 10:55:54;;;;;;;0.00;0.00;;;22.50;67.50;;;;;;5047348;28;20086;-75
2023/08/15 10:58:21;;;;;;;0.00;0.00;;;22.60;69.60;;;;;;5062410;28;20084;-75
2023/08/15 11:00:49;;;;;;;0.00;0.00;;;22.70;69.20;;;;;;5018512;28;20106;-75
2023/08/15 11:03:15;;;;;;;0.22;0.17;;;22.80;69.40;;;;;;5036365;28;20052;-75
2023/08/15 11:05:42;;;;;;;0.00;0.00;;;22.90;69.40;;;;;;5034691;28;20053;-75
2023/08/15 11:08:15;;;;;;;0.00;0.00;;;23.00;69.90;;;;;;5035749;28;20044;-76
2023/08/15 11:10:49;;;;;;;0.00;0.00;;;23.10;67.70;;;;;;5046488;28;20060;-76
2023/08/15 11:13:15;;;;;;;0.00;0.00;;;23.30;67.60;;;;;;5021140;28;20516;-75
2023/08/15 11:15:42;;;;;;;0.00;0.00;;;23.40;68.60;;;;;;5035009;28;20053;-76
2023/08/15 11:18:08;;;;;;;0.00;0.00;;;23.40;67.80;;;;;;5055586;28;20041;-77
2023/08/15 11:20:34;;;;;;;0.32;0.32;;;23.40;67.90;;;;;;5039744;28;20053;-77
2023/08/15 11:23:00;;;;;;;0.80;0.80;;;23.50;68.40;;;;;;5043722;28;20110;-77
2023/08/15 11:25:25;;;;;;;0.00;0.00;;;23.50;68.20;;;;;;5044069;28;20056;-77
2023/08/15 11:27:51;;;;;;;0.00;0.00;;;23.50;68.20;;;;;;5033859;28;20044;-78
2023/08/15 11:30:20;;;;;;;0.00;0.00;;;23.50;68.60;;;;;;5052065;28;20052;-78
2023/08/15 11:32:45;;;;;;;0.00;0.00;;;23.40;67.00;;;;;;5055376;28;20140;-78
2023/08/15 11:35:11;;;;;;;0.00;0.00;;;23.40;65.70;;;;;;5041547;28;20140;-78
2023/08/15 11:37:38;;;;;;;0.00;0.00;;;23.30;67.20;;;;;;5055727;28;20485;-78
2023/08/15 11:40:04;;;;;;;0.00;0.00;;;23.30;68.10;;;;;;5043375;28;20561;-78
2023/08/15 11:42:32;;;;;;;0.00;0.00;;;23.30;66.70;;;;;;5042255;28;20670;-78
2023/08/15 11:45:19;;;;;;;0.00;0.00;;;23.40;68.00;;;;;;5044177;28;20794;-78
2023/08/15 11:47:56;;;;;;;0.00;0.00;;;23.50;67.20;;;;;;5041884;28;20060;-78
2023/08/15 11:50:25;;;;;;;0.20;0.20;;;23.60;67.10;;;;;;5037886;28;20048;-78
2023/08/15 11:52:50;;;;;;;0.10;0.10;;;23.90;67.10;;;;;;5035235;28;20037;-77
2023/08/15 11:55:18;;;;;;;0.00;0.00;;;24.00;67.70;;;;;;5059526;28;20036;-78
2023/08/15 11:57:47;;;;;;;0.00;0.00;;;23.80;65.30;;;;;;5046033;28;20055;-74
2023/08/15 12:00:15;;;;;;;0.00;0.00;;;23.70;66.30;;;;;;5044361;28;20839;-78
2023/08/15 12:02:44;;;;;;;0.00;0.00;;;23.70;67.50;;;;;;5033016;28;20494;-75
2023/08/15 12:05:11;;;;;;;0.28;0.22;;;23.60;66.50;;;;;;5067308;28;20090;-76
2023/08/15 12:07:37;;;;;;;0.00;0.00;;;23.50;66.90;;;;;;5067053;28;20055;-78
2023/08/15 12:10:06;;;;;;;0.00;0.00;;;23.30;66.20;;;;;;5031187;28;20053;-78
2023/08/15 12:12:44;;;;;;;0.00;0.00;;;23.30;67.20;;;;;;5046132;28;20471;-78
2023/08/15 12:15:12;;;;;;;0.00;0.00;;;23.30;67.60;;;;;;5044976;28;20550;-78
2023/08/15 12:17:38;;;;;;;0.00;0.00;;;23.30;67.60;;;;;;5048976;28;20838;-76
2023/08/15 12:20:14;;;;;;;0.00;0.00;;;23.30;66.30;;;;;;5055238;28;20076;-75
2023/08/15 12:22:40;;;;;;;0.00;0.00;;;23.30;67.70;;;;;;5052014;28;20512;-76
2023/08/15 12:25:09;;;;;;;0.00;0.00;;;23.40;67.40;;;;;;5048167;28;20045;-79
2023/08/15 12:27:36;;;;;;;0.00;0.00;;;23.40;67.00;;;;;;5051211;28;20102;-79
2023/08/15 12:30:03;;;;;;;0.00;0.00;;;23.40;67.50;;;;;;5051575;28;20040;-78
2023/08/15 12:32:29;;;;;;;0.43;0.35;;;23.50;67.70;;;;;;5044033;28;20485;-78
2023/08/15 12:34:54;;;;;;;0.00;0.00;;;23.60;66.30;;;;;;5040027;28;20049;-78
2023/08/15 12:37:20;;;;;;;0.10;0.10;;;23.50;65.40;;;;;;5048321;28;20075;-78
2023/08/15 12:39:46;;;;;;;0.00;0.00;;;23.50;66.10;;;;;;5063317;28;20078;-78
2023/08/15 12:42:14;;;;;;;0.00;0.00;;;23.50;67.00;;;;;;5034741;28;20037;-78
2023/08/15 12:44:42;;;;;;;0.00;0.00;;;23.60;66.80;;;;;;5034332;28;20059;-78